createdAt,value
2023-01-21T00:01:16.950Z,10.57
2023-01-21T00:03:45.489Z,11.20
2023-01-21T00:06:15.859Z,11.13
2023-01-21T00:08:44.131Z,10.87
2023-01-21T00:11:14.623Z,11.10
2023-01-21T00:13:43.291Z,10.87
2023-01-21T00:16:12.560Z,10.90
2023-01-21T00:18:42.147Z,11.17
2023-01-21T00:21:10.628Z,10.10
2023-01-21T00:23:38.807Z,12.00
2023-01-21T00:26:07.757Z,11.67
2023-01-21T00:28:37.048Z,10.57
2023-01-21T00:31:06.192Z,11.90
2023-01-21T00:33:35.275Z,13.37
2023-01-21T00:36:06.339Z,11.47
2023-01-21T00:38:34.548Z,10.93
2023-01-21T00:41:03.331Z,11.60
2023-01-21T00:43:31.870Z,12.33
2023-01-21T00:46:00.178Z,10.60
2023-01-21T00:48:29.272Z,11.87
2023-01-21T00:51:00.527Z,11.03
2023-01-21T00:53:31.109Z,11.63
2023-01-21T00:56:02.793Z,10.53
2023-01-21T00:58:31.948Z,11.13
2023-01-21T01:01:03.538Z,11.50
2023-01-21T01:03:32.146Z,11.50
2023-01-21T01:06:03.987Z,10.93
2023-01-21T01:08:33.800Z,11.40
2023-01-21T01:11:02.340Z,10.63
2023-01-21T01:13:30.615Z,11.53
2023-01-21T01:16:00.018Z,11.53
2023-01-21T01:18:29.082Z,11.87
2023-01-21T01:20:57.443Z,11.37
2023-01-21T01:23:25.733Z,11.17
2023-01-21T01:25:58.833Z,11.90
2023-01-21T01:28:27.370Z,11.70
2023-01-21T01:30:56.731Z,11.20
2023-01-21T01:33:25.353Z,11.00
2023-01-21T01:35:53.620Z,12.07
2023-01-21T01:38:23.513Z,11.20
2023-01-21T01:40:53.229Z,11.27
2023-01-21T01:43:23.626Z,10.73
2023-01-21T01:45:52.130Z,11.47
2023-01-21T01:48:22.618Z,11.60
2023-01-21T01:50:50.968Z,12.40
2023-01-21T01:53:20.472Z,11.37
2023-01-21T01:55:49.031Z,11.50
2023-01-21T01:58:18.140Z,11.77
2023-01-21T02:00:47.752Z,11.70
2023-01-21T02:03:34.455Z,11.87
2023-01-21T02:06:02.850Z,11.50
2023-01-21T02:08:32.706Z,12.83
2023-01-21T02:11:02.537Z,11.30
2023-01-21T02:13:33.216Z,13.17
2023-01-21T02:16:08.800Z,11.67
2023-01-21T02:18:40.293Z,11.30
2023-01-21T02:21:23.342Z,12.73
2023-01-21T02:24:01.154Z,12.00
2023-01-21T02:26:42.095Z,12.10
2023-01-21T02:29:20.421Z,12.00
2023-01-21T02:31:59.497Z,12.53
2023-01-21T02:34:34.368Z,11.60
2023-01-21T02:37:07.056Z,12.10
2023-01-21T02:39:49.095Z,14.00
2023-01-21T02:42:24.220Z,11.73
2023-01-21T02:44:55.129Z,12.93
2023-01-21T02:47:31.250Z,11.13
2023-01-21T02:50:02.967Z,12.53
2023-01-21T02:52:31.748Z,13.80
2023-01-21T02:55:00.475Z,12.67
2023-01-21T02:57:41.601Z,12.77
2023-01-21T03:00:12.018Z,11.90
2023-01-21T03:03:01.273Z,13.77
2023-01-21T03:05:35.814Z,12.27
2023-01-21T03:08:08.602Z,12.57
2023-01-21T03:10:40.320Z,12.70
2023-01-21T03:13:09.352Z,12.30
2023-01-21T03:15:56.475Z,13.33
2023-01-21T03:18:26.495Z,13.77
2023-01-21T03:20:58.182Z,12.47
2023-01-21T03:23:29.370Z,13.90
2023-01-21T03:25:58.887Z,13.83
2023-01-21T03:28:29.114Z,12.50
2023-01-21T03:30:59.098Z,12.93
2023-01-21T03:33:28.077Z,13.50
2023-01-21T03:35:59.086Z,13.50
2023-01-21T03:38:31.417Z,12.80
2023-01-21T03:41:01.494Z,12.57
2023-01-21T03:43:29.734Z,14.10
2023-01-21T03:46:01.715Z,12.77
2023-01-21T03:48:33.481Z,14.10
2023-01-21T03:51:05.378Z,15.03
2023-01-21T03:53:33.669Z,12.77
2023-01-21T03:56:01.853Z,14.27
2023-01-21T03:58:30.690Z,13.73
2023-01-21T04:00:58.925Z,14.47
2023-01-21T04:03:27.134Z,15.00
2023-01-21T04:05:55.372Z,14.67
2023-01-21T04:08:24.877Z,12.87
2023-01-21T04:10:53.077Z,13.67
2023-01-21T04:13:21.320Z,14.23
2023-01-21T04:15:49.535Z,13.10
2023-01-21T04:18:17.710Z,15.23
2023-01-21T04:20:47.776Z,14.57
2023-01-21T04:23:15.952Z,13.77
2023-01-21T04:25:45.459Z,14.47
2023-01-21T04:28:13.688Z,12.80
2023-01-21T04:30:41.889Z,13.40
2023-01-21T04:33:10.115Z,13.73
2023-01-21T04:35:38.280Z,15.10
2023-01-21T04:38:06.896Z,14.03
2023-01-21T04:40:35.087Z,14.10
2023-01-21T04:43:04.716Z,12.93
2023-01-21T04:45:32.896Z,14.37
2023-01-21T04:48:01.134Z,14.10
2023-01-21T04:50:29.287Z,13.63
2023-01-21T04:52:57.472Z,12.90
2023-01-21T04:55:26.515Z,13.83
2023-01-21T04:57:54.776Z,14.57
2023-01-21T05:00:24.736Z,14.87
2023-01-21T05:02:52.951Z,14.17
2023-01-21T05:05:21.156Z,13.83
2023-01-21T05:07:49.332Z,14.10
2023-01-21T05:10:18.432Z,13.60
2023-01-21T05:12:46.963Z,13.27
2023-01-21T05:15:15.150Z,13.83
2023-01-21T05:17:44.724Z,14.27
2023-01-21T05:20:13.347Z,14.30
2023-01-21T05:22:41.496Z,14.60
2023-01-21T05:25:10.087Z,15.17
2023-01-21T05:27:38.254Z,14.93
2023-01-21T05:30:06.923Z,14.67
2023-01-21T05:32:35.840Z,13.57
2023-01-21T05:35:05.516Z,14.67
2023-01-21T05:37:33.798Z,13.67
2023-01-21T05:40:02.078Z,14.57
2023-01-21T05:42:30.290Z,15.13
2023-01-21T05:44:58.469Z,14.17
2023-01-21T05:47:26.699Z,14.00
2023-01-21T05:49:54.836Z,14.10
2023-01-21T05:52:24.345Z,14.60
2023-01-21T05:55:01.414Z,14.60
2023-01-21T05:57:30.750Z,15.40
2023-01-21T05:59:59.245Z,13.87
2023-01-21T06:02:27.524Z,15.17
2023-01-21T06:04:55.740Z,14.77
2023-01-21T06:07:25.313Z,14.33
2023-01-21T06:09:53.631Z,16.10
2023-01-21T06:12:23.830Z,14.33
2023-01-21T06:14:52.924Z,15.90
2023-01-21T06:17:21.107Z,14.70
2023-01-21T06:19:49.435Z,16.03
2023-01-21T06:22:17.882Z,16.13
2023-01-21T06:24:47.605Z,16.73
2023-01-21T06:27:15.824Z,15.47
2023-01-21T06:29:43.972Z,16.20
2023-01-21T06:32:12.148Z,13.80
2023-01-21T06:34:40.357Z,15.87
2023-01-21T06:37:08.721Z,15.93
2023-01-21T06:39:37.001Z,15.50
2023-01-21T06:42:06.631Z,14.57
2023-01-21T06:44:34.917Z,13.80
2023-01-21T06:47:03.260Z,14.50
2023-01-21T06:49:31.552Z,14.77
2023-01-21T06:51:59.708Z,16.43
2023-01-21T06:54:30.282Z,16.00
2023-01-21T06:56:58.703Z,15.43
2023-01-21T06:59:28.290Z,15.23
2023-01-21T07:01:59.000Z,16.77
2023-01-21T07:04:27.474Z,17.93
2023-01-21T07:06:55.715Z,20.47
2023-01-21T07:09:23.909Z,20.90
2023-01-21T07:11:52.112Z,16.50
2023-01-21T07:14:20.285Z,15.57
2023-01-21T07:16:49.858Z,16.00
2023-01-21T07:19:18.070Z,18.07
2023-01-21T07:21:46.399Z,17.17
2023-01-21T07:24:14.637Z,16.40
2023-01-21T07:26:43.181Z,15.77
2023-01-21T07:29:11.506Z,15.17
2023-01-21T07:31:39.821Z,26.57
2023-01-21T07:34:09.402Z,17.83
2023-01-21T07:36:37.608Z,16.17
2023-01-21T07:39:05.870Z,17.00
2023-01-21T07:41:34.092Z,16.07
2023-01-21T07:44:02.234Z,19.17
2023-01-21T07:46:31.789Z,19.00
2023-01-21T07:48:59.968Z,16.20
2023-01-21T07:51:29.444Z,15.37
2023-01-21T07:53:58.293Z,16.03
2023-01-21T07:56:27.166Z,14.40
2023-01-21T07:58:55.370Z,14.17
2023-01-21T08:01:27.021Z,13.40
2023-01-21T08:03:55.318Z,12.47
2023-01-21T08:06:23.523Z,11.70
2023-01-21T08:08:53.261Z,13.97
2023-01-21T08:11:21.513Z,14.33
2023-01-21T08:13:50.695Z,14.47
2023-01-21T08:16:18.928Z,13.97
2023-01-21T08:18:47.111Z,12.97
2023-01-21T08:21:15.319Z,12.97
2023-01-21T08:23:43.541Z,12.57
2023-01-21T08:26:13.101Z,14.30
2023-01-21T08:28:41.276Z,14.40
2023-01-21T08:31:10.717Z,13.47
2023-01-21T08:33:39.434Z,14.17
2023-01-21T08:36:09.086Z,12.53
2023-01-21T08:38:37.624Z,14.10
2023-01-21T08:41:06.041Z,12.50
2023-01-21T08:43:35.580Z,12.90
2023-01-21T08:46:04.026Z,12.77
2023-01-21T08:48:32.241Z,16.00
2023-01-21T08:51:00.749Z,16.10
2023-01-21T08:53:28.964Z,14.83
2023-01-21T08:56:00.377Z,14.83
2023-01-21T08:58:28.743Z,18.73
2023-01-21T09:00:58.567Z,14.50
2023-01-21T09:03:26.788Z,15.90
2023-01-21T09:05:55.774Z,14.97
2023-01-21T09:08:23.952Z,15.33
2023-01-21T09:11:04.368Z,17.87
2023-01-21T09:13:33.737Z,17.83
2023-01-21T09:16:03.488Z,16.00
2023-01-21T09:18:31.678Z,15.97
2023-01-21T09:21:02.996Z,15.07
2023-01-21T09:23:34.109Z,14.97
2023-01-21T09:26:03.462Z,17.13
2023-01-21T09:28:32.295Z,15.20
2023-01-21T09:31:01.074Z,17.63
2023-01-21T09:33:31.486Z,15.70
2023-01-21T09:36:00.644Z,15.07
2023-01-21T09:38:29.422Z,15.47
2023-01-21T09:41:06.685Z,16.27
2023-01-21T09:43:38.710Z,15.60
2023-01-21T09:46:09.184Z,16.80
2023-01-21T09:48:41.316Z,16.03
2023-01-21T09:51:15.040Z,16.63
2023-01-21T09:53:46.686Z,18.60
2023-01-21T09:56:18.618Z,17.07
2023-01-21T09:58:49.870Z,14.63
2023-01-21T10:01:23.359Z,16.03
2023-01-21T10:03:56.592Z,16.30
2023-01-21T10:06:30.518Z,15.67
2023-01-21T10:09:13.589Z,14.70
2023-01-21T10:11:47.303Z,14.57
2023-01-21T10:14:21.698Z,16.00
2023-01-21T10:16:55.741Z,15.73
2023-01-21T10:19:29.111Z,15.93
2023-01-21T10:22:00.311Z,15.40
2023-01-21T10:24:30.600Z,14.50
2023-01-21T10:26:59.252Z,15.87
2023-01-21T10:29:27.905Z,14.70
2023-01-21T10:31:59.428Z,14.77
2023-01-21T10:34:31.315Z,15.20
2023-01-21T10:37:02.605Z,13.83
2023-01-21T10:39:33.913Z,13.67
2023-01-21T10:42:17.049Z,15.30
2023-01-21T10:44:48.646Z,13.40
2023-01-21T10:47:23.229Z,14.33
2023-01-21T10:49:57.713Z,15.30
2023-01-21T10:52:27.725Z,13.17
2023-01-21T10:55:00.575Z,14.73
2023-01-21T10:57:34.051Z,15.50
2023-01-21T11:00:03.649Z,14.70
2023-01-21T11:02:32.734Z,14.80
2023-01-21T11:05:03.921Z,14.60
2023-01-21T11:07:34.751Z,13.77
2023-01-21T11:10:04.240Z,16.13
2023-01-21T11:12:32.915Z,14.13
2023-01-21T11:15:03.728Z,13.53
2023-01-21T11:17:33.845Z,13.53
2023-01-21T11:20:04.435Z,16.30
2023-01-21T11:22:33.254Z,18.20
2023-01-21T11:25:02.697Z,17.27
2023-01-21T11:27:34.776Z,13.20
2023-01-21T11:30:03.333Z,13.30
2023-01-21T11:32:32.351Z,13.40
2023-01-21T11:35:04.879Z,13.13
2023-01-21T11:37:34.047Z,12.60
2023-01-21T11:40:03.537Z,11.97
2023-01-21T11:42:31.790Z,14.63
2023-01-21T11:45:04.219Z,14.57
2023-01-21T11:47:37.020Z,16.87
2023-01-21T11:50:13.315Z,16.43
2023-01-21T11:52:41.526Z,15.47
2023-01-21T11:55:19.910Z,13.93
2023-01-21T11:57:50.940Z,12.57
2023-01-21T12:00:20.348Z,12.63
2023-01-21T12:02:49.583Z,12.93
2023-01-21T12:05:20.864Z,11.67
2023-01-21T12:07:51.134Z,13.47
2023-01-21T12:10:25.135Z,11.47
2023-01-21T12:12:59.393Z,14.07
2023-01-21T12:15:33.938Z,12.03
2023-01-21T12:18:06.617Z,11.20
2023-01-21T12:20:40.209Z,11.10
2023-01-21T12:23:34.421Z,11.03
2023-01-21T12:26:13.914Z,12.07
2023-01-21T12:28:56.612Z,11.50
2023-01-21T12:31:29.304Z,11.47
2023-01-21T12:34:00.935Z,11.83
2023-01-21T12:36:32.396Z,10.70
2023-01-21T12:39:15.485Z,12.30
2023-01-21T12:41:44.718Z,12.40
2023-01-21T12:44:24.286Z,11.57
2023-01-21T12:46:54.033Z,18.30
2023-01-21T12:49:24.539Z,12.53
2023-01-21T12:51:56.069Z,15.83
2023-01-21T12:54:26.533Z,12.97
2023-01-21T12:56:58.904Z,11.50
2023-01-21T12:59:31.336Z,11.13
2023-01-21T13:02:05.431Z,10.73
2023-01-21T13:04:39.409Z,10.43
2023-01-21T13:07:13.632Z,11.20
2023-01-21T13:09:45.864Z,9.97
2023-01-21T13:12:16.204Z,10.87
2023-01-21T13:14:48.234Z,10.80
2023-01-21T13:17:18.722Z,11.27
2023-01-21T13:19:46.975Z,11.50
2023-01-21T13:22:22.953Z,10.90
2023-01-21T13:25:04.717Z,10.60
2023-01-21T13:27:38.503Z,9.50
2023-01-21T13:30:12.163Z,9.27
2023-01-21T13:32:44.573Z,10.50
2023-01-21T13:35:19.686Z,10.00
2023-01-21T13:37:51.997Z,11.17
2023-01-21T13:40:23.882Z,11.17
2023-01-21T13:42:55.290Z,10.10
2023-01-21T13:45:26.637Z,11.80
2023-01-21T13:48:04.591Z,12.13
2023-01-21T13:50:38.243Z,11.70
2023-01-21T13:53:23.241Z,26.37
2023-01-21T13:55:56.347Z,16.30
2023-01-21T13:58:32.125Z,15.53
2023-01-21T14:01:02.021Z,11.17
2023-01-21T14:03:33.732Z,11.93
2023-01-21T14:06:03.966Z,11.27
2023-01-21T14:08:35.273Z,10.53
2023-01-21T14:11:06.558Z,10.07
2023-01-21T14:13:52.795Z,11.60
2023-01-21T14:16:29.800Z,12.43
2023-01-21T14:19:04.359Z,11.43
2023-01-21T14:21:44.154Z,10.60
2023-01-21T14:24:19.925Z,10.67
2023-01-21T14:26:54.380Z,9.93
2023-01-21T14:29:27.135Z,12.17
2023-01-21T14:31:58.704Z,13.50
2023-01-21T14:34:29.359Z,12.00
2023-01-21T14:37:03.834Z,24.00
2023-01-21T14:39:38.201Z,27.20
2023-01-21T14:42:11.254Z,19.77
2023-01-21T14:44:41.078Z,18.30
2023-01-21T14:47:22.775Z,13.60
2023-01-21T14:49:51.803Z,10.87
2023-01-21T14:52:21.017Z,11.27
2023-01-21T14:54:50.588Z,11.20
2023-01-21T14:57:30.133Z,12.20
2023-01-21T15:00:05.522Z,12.67
2023-01-21T15:02:35.171Z,11.10
2023-01-21T15:05:04.273Z,10.30
2023-01-21T15:07:33.473Z,11.13
2023-01-21T15:10:05.645Z,10.13
2023-01-21T15:12:35.612Z,9.80
2023-01-21T15:15:05.188Z,11.43
2023-01-21T15:17:46.817Z,10.50
2023-01-21T15:20:39.858Z,9.90
2023-01-21T15:23:18.637Z,10.60
2023-01-21T15:26:01.690Z,11.57
2023-01-21T15:28:40.257Z,12.10
2023-01-21T15:31:11.243Z,12.20
2023-01-21T15:33:44.976Z,11.27
2023-01-21T15:36:21.132Z,10.37
2023-01-21T15:38:50.586Z,10.70
2023-01-21T15:41:26.814Z,11.00
2023-01-21T15:43:59.625Z,9.90
2023-01-21T15:46:34.530Z,11.83
2023-01-21T15:49:06.947Z,11.40
2023-01-21T15:51:41.178Z,11.10
2023-01-21T15:54:16.191Z,10.40
2023-01-21T15:56:51.231Z,12.10
2023-01-21T15:59:26.229Z,13.00
2023-01-21T16:02:09.037Z,13.50
2023-01-21T16:04:43.197Z,12.00
2023-01-21T16:07:17.278Z,11.80
2023-01-21T16:09:52.250Z,11.30
2023-01-21T16:12:25.413Z,11.30
2023-01-21T16:14:59.766Z,10.80
2023-01-21T16:17:35.867Z,11.40
2023-01-21T16:20:06.034Z,11.47
2023-01-21T16:22:35.457Z,10.50
2023-01-21T16:25:06.435Z,9.83
2023-01-21T16:27:35.301Z,9.60
2023-01-21T16:30:04.557Z,9.60
2023-01-21T16:32:36.971Z,8.40
2023-01-21T16:35:05.948Z,7.50
2023-01-21T16:37:34.548Z,8.20
2023-01-21T16:40:17.620Z,8.37
2023-01-21T16:42:45.798Z,8.30
2023-01-21T16:45:18.326Z,11.00
2023-01-21T16:47:56.988Z,9.67
2023-01-21T16:50:26.435Z,11.10
2023-01-21T16:52:55.027Z,12.53
2023-01-21T16:55:25.706Z,11.70
2023-01-21T16:57:54.971Z,10.77
2023-01-21T17:00:24.023Z,9.77
2023-01-21T17:02:54.871Z,10.13
2023-01-21T17:05:23.570Z,9.47
2023-01-21T17:07:55.682Z,11.80
2023-01-21T17:10:25.271Z,11.03
2023-01-21T17:12:55.627Z,10.93
2023-01-21T17:15:27.586Z,11.93
2023-01-21T17:17:58.354Z,9.77
2023-01-21T17:20:35.731Z,11.67
2023-01-21T17:23:05.028Z,10.17
2023-01-21T17:25:33.387Z,8.70
2023-01-21T17:28:01.589Z,8.33
2023-01-21T17:30:31.577Z,7.20
2023-01-21T17:33:02.079Z,9.80
2023-01-21T17:35:31.159Z,7.83
2023-01-21T17:38:00.475Z,11.30
2023-01-21T17:40:30.417Z,9.67
2023-01-21T17:43:17.102Z,9.03
2023-01-21T17:45:46.170Z,8.60
2023-01-21T17:48:22.269Z,8.60
2023-01-21T17:50:50.497Z,9.27
2023-01-21T17:53:22.129Z,8.00
2023-01-21T17:55:57.515Z,9.80
2023-01-21T17:58:45.809Z,9.00
2023-01-21T18:01:14.104Z,9.53
2023-01-21T18:03:43.723Z,9.07
2023-01-21T18:06:16.931Z,9.00
2023-01-21T18:08:45.160Z,9.50
2023-01-21T18:11:15.209Z,11.00
2023-01-21T18:13:44.022Z,9.70
2023-01-21T18:16:12.434Z,9.40
2023-01-21T18:18:40.696Z,9.40
2023-01-21T18:21:16.616Z,9.30
2023-01-21T18:23:44.851Z,9.67
2023-01-21T18:26:16.875Z,9.27
2023-01-21T18:28:45.051Z,8.53
2023-01-21T18:31:13.690Z,9.50
2023-01-21T18:33:42.002Z,8.33
2023-01-21T18:36:13.420Z,8.67
2023-01-21T18:38:41.593Z,8.57
2023-01-21T18:41:10.053Z,8.33
2023-01-21T18:43:38.236Z,8.93
2023-01-21T18:46:07.307Z,10.80
2023-01-21T18:48:35.566Z,11.33
2023-01-21T18:51:04.718Z,9.90
2023-01-21T18:53:34.297Z,11.27
2023-01-21T18:56:04.994Z,12.37
2023-01-21T18:58:33.188Z,10.20
2023-01-21T19:01:08.076Z,11.53
2023-01-21T19:03:43.349Z,11.40
2023-01-21T19:06:14.510Z,12.77
2023-01-21T19:08:45.157Z,15.20
2023-01-21T19:11:13.948Z,14.83
2023-01-21T19:13:42.153Z,15.67
2023-01-21T19:16:13.572Z,13.40
2023-01-21T19:18:41.773Z,14.13
2023-01-21T19:21:09.956Z,17.10
2023-01-21T19:23:40.060Z,10.63
2023-01-21T19:26:09.806Z,11.80
2023-01-21T19:28:38.020Z,10.37
2023-01-21T19:31:06.490Z,11.13
2023-01-21T19:33:34.811Z,10.57
2023-01-21T19:36:04.579Z,11.07
2023-01-21T19:38:32.872Z,11.40
2023-01-21T19:41:01.107Z,11.17
2023-01-21T19:43:30.755Z,9.90
2023-01-21T19:45:59.275Z,10.03
2023-01-21T19:48:29.449Z,9.40
2023-01-21T19:50:57.684Z,12.90
2023-01-21T19:53:25.921Z,11.20
2023-01-21T19:55:54.203Z,12.50
2023-01-21T19:58:23.738Z,11.70
2023-01-21T20:00:54.426Z,11.00
2023-01-21T20:03:23.356Z,11.70
2023-01-21T20:05:52.986Z,12.17
2023-01-21T20:08:22.488Z,12.57
2023-01-21T20:10:50.777Z,15.77
2023-01-21T20:13:19.469Z,14.00
2023-01-21T20:15:49.256Z,13.47
2023-01-21T20:18:21.398Z,12.87
2023-01-21T20:20:49.618Z,14.07
2023-01-21T20:23:18.503Z,14.00
2023-01-21T20:25:48.098Z,13.27
2023-01-21T20:28:18.913Z,11.67
2023-01-21T20:30:47.200Z,11.23
2023-01-21T20:33:16.662Z,11.40
2023-01-21T20:35:47.881Z,11.27
2023-01-21T20:38:17.213Z,12.27
2023-01-21T20:40:45.380Z,11.33
2023-01-21T20:43:13.604Z,13.63
2023-01-21T20:45:43.548Z,10.83
2023-01-21T20:48:17.065Z,11.10
2023-01-21T20:50:46.700Z,10.30
2023-01-21T20:53:15.012Z,11.73
2023-01-21T20:55:44.101Z,11.07
2023-01-21T20:58:13.699Z,12.30
2023-01-21T21:00:42.518Z,11.70
2023-01-21T21:03:11.220Z,12.30
2023-01-21T21:05:39.387Z,9.77
2023-01-21T21:08:11.561Z,11.10
2023-01-21T21:10:39.708Z,10.60
2023-01-21T21:13:08.187Z,11.20
2023-01-21T21:15:37.297Z,11.03
2023-01-21T21:18:05.633Z,10.40
2023-01-21T21:20:35.230Z,10.40
2023-01-21T21:23:04.258Z,10.03
2023-01-21T21:25:34.529Z,12.37
2023-01-21T21:28:02.758Z,12.00
2023-01-21T21:30:31.955Z,11.60
2023-01-21T21:33:01.039Z,10.37
2023-01-21T21:35:30.092Z,12.00
2023-01-21T21:38:01.802Z,11.47
2023-01-21T21:40:30.307Z,11.73
2023-01-21T21:43:17.657Z,12.03
2023-01-21T21:46:00.182Z,11.50
2023-01-21T21:48:41.848Z,13.67
2023-01-21T21:51:11.024Z,13.67
2023-01-21T21:53:39.614Z,11.80
2023-01-21T21:56:09.218Z,12.20
2023-01-21T21:58:38.821Z,15.47
2023-01-21T22:01:10.602Z,13.47
2023-01-21T22:03:39.050Z,12.43
2023-01-21T22:06:07.657Z,10.67
2023-01-21T22:08:37.016Z,11.83
2023-01-21T22:11:06.378Z,11.83
2023-01-21T22:13:37.334Z,12.60
2023-01-21T22:16:07.684Z,11.57
2023-01-21T22:18:36.346Z,12.70
2023-01-21T22:21:05.727Z,12.27
2023-01-21T22:23:35.057Z,12.30
2023-01-21T22:26:06.159Z,11.03
2023-01-21T22:28:35.115Z,11.07
2023-01-21T22:31:04.630Z,10.97
2023-01-21T22:33:34.459Z,11.80
2023-01-21T22:36:04.400Z,13.40
2023-01-21T22:38:33.765Z,12.20
2023-01-21T22:41:02.154Z,11.30
2023-01-21T22:43:30.366Z,13.50
2023-01-21T22:45:59.080Z,12.27
2023-01-21T22:48:27.782Z,11.03
2023-01-21T22:50:58.428Z,10.40
2023-01-21T22:53:27.345Z,12.50
2023-01-21T22:55:56.263Z,12.60
2023-01-21T22:58:24.705Z,11.33
2023-01-21T23:00:53.729Z,10.43
2023-01-21T23:03:22.696Z,10.20
2023-01-21T23:05:50.912Z,9.43
2023-01-21T23:08:20.697Z,11.03
2023-01-21T23:10:49.072Z,10.30
2023-01-21T23:13:18.029Z,10.63
2023-01-21T23:15:46.888Z,9.30
2023-01-21T23:18:15.853Z,9.20
2023-01-21T23:20:44.257Z,9.97
2023-01-21T23:23:13.151Z,9.00
2023-01-21T23:25:42.985Z,10.80
2023-01-21T23:28:11.209Z,9.63
2023-01-21T23:30:39.392Z,10.60
2023-01-21T23:33:07.870Z,9.70
2023-01-21T23:35:36.217Z,11.00
2023-01-21T23:38:04.913Z,10.63
2023-01-21T23:40:33.085Z,11.20
2023-01-21T23:43:02.672Z,11.47
2023-01-21T23:45:30.879Z,9.60
2023-01-21T23:47:59.061Z,10.60
2023-01-21T23:50:27.215Z,11.40
2023-01-21T23:52:56.949Z,10.63
2023-01-21T23:55:25.129Z,12.00
2023-01-21T23:57:53.383Z,12.47
